createdAt,value
2018-12-22T00:00:58.215Z,98903.33
2018-12-22T00:06:02.831Z,98896.76
2018-12-22T00:11:07.120Z,98920.35
2018-12-22T00:16:11.488Z,98922.94
2018-12-22T00:21:15.890Z,98923.66
2018-12-22T00:26:20.291Z,98918.70
2018-12-22T00:31:25.209Z,98917.30
2018-12-22T00:36:32.182Z,98918.26
2018-12-22T00:41:36.589Z,98936.86
2018-12-22T00:46:40.844Z,98943.66
2018-12-22T00:51:45.220Z,98949.27
2018-12-22T00:56:49.606Z,98954.18
2018-12-22T01:01:54.106Z,98960.33
2018-12-22T01:06:58.685Z,98964.77
2018-12-22T01:12:02.972Z,98974.63
2018-12-22T01:17:07.174Z,98981.44
2018-12-22T01:22:11.572Z,98979.46
2018-12-22T01:27:15.936Z,98973.30
2018-12-22T01:32:20.441Z,98994.72
2018-12-22T01:37:24.903Z,98995.02
2018-12-22T01:42:30.149Z,99004.64
2018-12-22T01:47:34.996Z,99013.25
2018-12-22T01:52:39.388Z,99029.81
2018-12-22T01:57:43.648Z,99030.73
2018-12-22T02:02:47.783Z,99041.34
2018-12-22T02:07:52.226Z,99051.49
2018-12-22T02:12:56.492Z,99058.09
2018-12-22T02:18:00.729Z,99058.83
2018-12-22T02:23:05.145Z,99073.28
2018-12-22T02:28:09.333Z,99073.35
2018-12-22T02:33:14.284Z,99085.89
2018-12-22T02:38:19.261Z,99091.03
2018-12-22T02:43:23.373Z,99106.50
2018-12-22T02:48:28.293Z,99095.90
2018-12-22T02:53:33.392Z,99093.69
2018-12-22T02:58:37.819Z,99101.96
2018-12-22T03:03:42.334Z,99081.56
2018-12-22T03:08:46.802Z,99087.88
2018-12-22T03:13:51.730Z,99084.02
2018-12-22T03:18:55.900Z,99087.57
2018-12-22T03:24:00.092Z,99105.95
2018-12-22T03:29:04.472Z,99097.78
2018-12-22T03:34:08.727Z,99096.48
2018-12-22T03:39:12.944Z,99099.00
2018-12-22T03:44:17.272Z,99087.03
2018-12-22T03:49:22.535Z,99085.63
2018-12-22T03:54:26.747Z,99095.52
2018-12-22T03:59:31.074Z,99096.17
2018-12-22T04:04:35.347Z,99104.02
2018-12-22T04:09:39.678Z,99096.52
2018-12-22T04:14:43.946Z,99107.32
2018-12-22T04:19:48.274Z,99098.71
2018-12-22T04:24:54.353Z,99101.11
2018-12-22T04:29:58.629Z,99109.23
2018-12-22T04:35:02.929Z,99105.06
2018-12-22T04:40:07.123Z,99117.36
2018-12-22T04:45:12.268Z,99123.31
2018-12-22T04:50:20.721Z,99111.75
2018-12-22T04:55:25.035Z,99114.56
2018-12-22T05:00:29.211Z,99115.59
2018-12-22T05:05:33.452Z,99120.19
2018-12-22T05:10:37.638Z,99114.62
2018-12-22T05:15:41.760Z,99126.91
2018-12-22T05:20:46.161Z,99116.00
2018-12-22T05:25:50.421Z,99123.48
2018-12-22T05:30:55.009Z,99127.09
2018-12-22T05:36:01.195Z,99124.95
2018-12-22T05:41:08.802Z,99131.79
2018-12-22T05:46:31.975Z,99118.90
2018-12-22T05:51:37.184Z,99127.05
2018-12-22T05:56:41.358Z,99124.20
2018-12-22T06:01:45.730Z,99116.94
2018-12-22T06:06:50.420Z,99118.79
2018-12-22T06:11:54.877Z,99113.70
2018-12-22T06:17:00.239Z,99112.69
2018-12-22T06:22:04.593Z,99119.01
2018-12-22T06:27:08.832Z,99109.93
2018-12-22T06:32:13.253Z,99117.94
2018-12-22T06:37:17.628Z,99103.11
2018-12-22T06:42:22.023Z,99102.25
2018-12-22T06:47:26.229Z,99108.52
2018-12-22T06:52:30.667Z,99104.86
2018-12-22T06:57:35.129Z,99106.02
2018-12-22T07:02:39.737Z,99111.84
2018-12-22T07:07:43.849Z,99117.78
2018-12-22T07:12:48.297Z,99110.96
2018-12-22T07:17:52.563Z,99115.45
2018-12-22T07:22:57.217Z,99116.55
2018-12-22T07:28:01.557Z,99101.89
2018-12-22T07:33:05.861Z,99100.16
2018-12-22T07:38:10.436Z,99100.45
2018-12-22T07:43:14.687Z,99084.67
2018-12-22T07:48:19.116Z,99090.72
2018-12-22T07:53:24.657Z,99094.86
2018-12-22T07:58:29.268Z,99112.84
2018-12-22T08:03:33.662Z,99107.56
2018-12-22T08:08:38.203Z,99103.17
2018-12-22T08:13:42.400Z,99111.47
2018-12-22T08:18:46.678Z,99100.83
2018-12-22T08:23:50.923Z,99107.34
2018-12-22T08:28:55.455Z,99118.52
2018-12-22T08:33:59.755Z,99127.83
2018-12-22T08:39:05.742Z,99132.87
2018-12-22T08:44:10.443Z,99123.14
2018-12-22T08:49:14.787Z,99125.38
2018-12-22T08:54:18.981Z,99127.88
2018-12-22T08:59:23.493Z,99133.58
2018-12-22T09:04:27.828Z,99144.22
2018-12-22T09:09:32.550Z,99151.14
2018-12-22T09:14:36.804Z,99158.23
2018-12-22T09:19:41.860Z,99161.98
2018-12-22T09:24:46.938Z,99164.28
2018-12-22T09:29:52.604Z,99159.95
2018-12-22T09:34:57.038Z,99164.08
2018-12-22T09:40:01.432Z,99157.52
2018-12-22T09:45:07.090Z,99172.28
2018-12-22T09:50:12.824Z,99189.48
2018-12-22T09:55:17.543Z,99198.88
2018-12-22T10:00:22.194Z,99225.03
2018-12-22T10:05:26.755Z,99244.15
2018-12-22T10:10:31.207Z,99243.89
2018-12-22T10:15:36.498Z,99247.14
2018-12-22T10:20:41.072Z,99263.06
2018-12-22T10:25:54.710Z,99277.98
2018-12-22T10:31:00.042Z,99285.53
2018-12-22T10:36:04.492Z,99298.80
2018-12-22T10:41:08.778Z,99310.30
2018-12-22T10:46:13.561Z,99334.18
2018-12-22T10:51:24.293Z,99345.70
2018-12-22T10:56:24.429Z,99343.58
2018-12-22T11:01:28.918Z,99345.61
2018-12-22T11:06:33.706Z,99364.22
2018-12-22T11:11:38.117Z,99371.22
2018-12-22T11:16:42.793Z,99367.41
2018-12-22T11:21:47.118Z,99371.89
2018-12-22T11:26:51.337Z,99393.53
2018-12-22T11:31:55.543Z,99410.54
2018-12-22T11:36:59.911Z,99426.55
2018-12-22T11:42:04.323Z,99440.38
2018-12-22T11:47:19.086Z,99440.95
2018-12-22T11:52:23.609Z,99455.61
2018-12-22T11:57:27.781Z,99464.61
2018-12-22T12:02:32.089Z,99490.30
2018-12-22T12:07:36.553Z,99497.51
2018-12-22T12:12:40.899Z,99519.72
2018-12-22T12:18:14.418Z,99532.95
2018-12-22T12:23:18.661Z,99540.41
2018-12-22T12:28:23.009Z,99544.44
2018-12-22T12:33:27.349Z,99563.02
2018-12-22T12:38:31.989Z,99578.58
2018-12-22T12:43:36.189Z,99590.78
2018-12-22T12:48:40.431Z,99589.47
2018-12-22T12:53:45.157Z,99610.33
2018-12-22T12:58:50.301Z,99603.20
2018-12-22T13:03:54.626Z,99622.50
2018-12-22T13:08:58.826Z,99632.84
2018-12-22T13:14:11.341Z,99640.80
2018-12-22T13:19:16.951Z,99656.89
2018-12-22T13:24:26.386Z,99671.66
2018-12-22T13:29:31.014Z,99687.24
2018-12-22T13:34:35.574Z,99703.93
2018-12-22T13:39:40.733Z,99713.72
2018-12-22T13:44:45.704Z,99718.80
2018-12-22T13:49:50.769Z,99743.91
2018-12-22T13:54:55.342Z,99750.46
2018-12-22T13:59:59.778Z,99756.80
2018-12-22T14:05:05.258Z,99762.11
2018-12-22T14:10:11.114Z,99772.69
2018-12-22T14:15:18.473Z,99773.76
2018-12-22T14:20:24.043Z,99785.11
2018-12-22T14:25:30.187Z,99788.82
2018-12-22T14:30:34.844Z,99799.90
2018-12-22T14:35:44.881Z,99804.70
2018-12-22T14:40:50.479Z,99815.27
2018-12-22T14:45:55.484Z,99825.30
2018-12-22T14:50:59.833Z,99839.27
2018-12-22T14:56:05.180Z,99840.09
2018-12-22T15:01:11.143Z,99846.97
2018-12-22T15:06:21.559Z,99850.13
2018-12-22T15:11:26.642Z,99867.02
2018-12-22T15:16:34.937Z,99861.50
2018-12-22T15:21:39.468Z,99868.88
2018-12-22T15:26:44.107Z,99876.27
2018-12-22T15:31:48.721Z,99873.63
2018-12-22T15:36:53.527Z,99884.70
2018-12-22T15:42:00.027Z,99886.02
2018-12-22T15:47:06.984Z,99888.67
2018-12-22T15:52:15.345Z,99882.34
2018-12-22T15:57:23.635Z,99884.45
2018-12-22T16:02:37.139Z,99887.63
2018-12-22T16:07:42.501Z,99883.94
2018-12-22T16:13:06.757Z,99891.05
2018-12-22T16:18:12.821Z,99892.09
2018-12-22T16:23:18.933Z,99889.45
2018-12-22T16:28:27.579Z,99889.99
2018-12-22T16:33:52.808Z,99897.38
2018-12-22T16:39:00.357Z,99904.52
2018-12-22T16:44:07.591Z,99907.15
2018-12-22T16:49:19.255Z,99906.61
2018-12-22T16:54:33.503Z,99907.69
2018-12-22T16:59:38.143Z,99914.55
2018-12-22T17:04:44.873Z,99919.59
2018-12-22T17:09:50.186Z,99923.80
2018-12-22T17:14:55.075Z,99931.49
2018-12-22T17:19:59.813Z,99930.41
2018-12-22T17:25:15.401Z,99934.91
2018-12-22T17:30:20.573Z,99942.84
2018-12-22T17:35:25.179Z,99957.09
2018-12-22T17:40:33.931Z,99954.72
2018-12-22T17:45:49.117Z,99957.91
2018-12-22T17:56:18.040Z,99955.47
2018-12-22T18:01:22.590Z,99962.33
2018-12-22T18:06:29.506Z,99964.43
2018-12-22T18:17:01.766Z,99947.77
2018-12-22T18:22:09.934Z,99952.30
2018-12-22T18:27:15.710Z,99959.66
2018-12-22T18:32:21.376Z,99971.03
2018-12-22T18:37:26.100Z,99972.63
2018-12-22T18:42:37.158Z,99968.64
2018-12-22T18:47:43.844Z,99972.04
2018-12-22T18:52:48.548Z,99976.80
2018-12-22T18:58:01.162Z,99981.05
2018-12-22T19:03:07.580Z,99982.35
2018-12-22T19:08:14.760Z,100009.86
2018-12-22T19:13:22.345Z,100006.16
2018-12-22T19:18:30.261Z,99996.66
2018-12-22T19:23:35.528Z,100009.06
2018-12-22T19:28:39.931Z,99997.95
2018-12-22T19:33:53.308Z,100002.44
2018-12-22T19:38:56.038Z,100001.94
2018-12-22T19:44:03.283Z,100009.05
2018-12-22T19:49:11.918Z,100006.38
2018-12-22T19:54:23.073Z,100012.23
2018-12-22T19:59:28.484Z,100020.45
2018-12-22T20:04:33.301Z,100020.73
2018-12-22T20:09:37.901Z,100028.13
2018-12-22T20:14:42.657Z,100029.72
2018-12-22T20:19:47.947Z,100040.81
2018-12-22T20:24:53.680Z,100052.74
2018-12-22T20:29:59.173Z,100045.35
2018-12-22T20:35:03.793Z,100045.36
2018-12-22T20:40:08.835Z,100051.41
2018-12-22T20:45:14.459Z,100057.25
2018-12-22T20:50:18.997Z,100054.88
2018-12-22T20:55:23.537Z,100060.16
2018-12-22T21:00:28.105Z,100066.77
2018-12-22T21:05:33.066Z,100067.55
2018-12-22T21:10:38.459Z,100073.88
2018-12-22T21:15:43.206Z,100086.59
2018-12-22T21:20:48.131Z,100078.13
2018-12-22T21:25:53.407Z,100087.11
2018-12-22T21:30:58.015Z,100087.64
2018-12-22T21:36:02.510Z,100102.20
2018-12-22T21:41:07.505Z,100099.81
2018-12-22T21:46:13.424Z,100113.83
2018-12-22T21:51:22.789Z,100122.58
2018-12-22T21:56:30.129Z,100135.80
2018-12-22T22:01:38.292Z,100136.05
2018-12-22T22:17:43.520Z,100142.42
2018-12-22T22:22:48.157Z,100143.47
2018-12-22T22:27:53.902Z,100150.59
2018-12-22T22:32:59.780Z,100141.87
2018-12-22T22:38:04.176Z,100150.58
2018-12-22T22:43:08.678Z,100151.90
2018-12-22T22:48:13.461Z,100166.19
2018-12-22T22:53:20.974Z,100176.26
2018-12-22T22:58:25.282Z,100179.95
2018-12-22T23:03:30.459Z,100182.87
2018-12-22T23:14:03.113Z,100202.45
2018-12-22T23:19:08.021Z,100196.37
2018-12-22T23:24:12.739Z,100202.19
2018-12-22T23:50:10.849Z,100244.52
2018-12-22T23:55:20.146Z,100251.94
